New England — V7HF3 — position and weather

sailwx.info

Track history (hours):
 
Tides and Currents Weather Stations Pressure Air Temp Water Temp Dewpoint Dewpoint Depression Visibility Wind Speed Wind Dir Waves Ship Positions

New England

Last reported at 2016-Apr-16 22:08 UTC. Time now 2016-Apr-29 01:54 UTC.
Position N 42°51' W 070°14'.
Warning: this ship's position is 12 days out of date.

Length 182 m; draft 7.4 m.

Type: Ship. MMSI: 538002220.

Date/timePositionNaut miles runAvg speedWind from/ knotsBaromVisibWave heightAir tempDewpointWater temp
2016-Apr-16 22:08N 42°51' W 070°14'610.0
2016-Apr-16 21:33N 42°46' W 070°17'10 9.8
2016-Apr-16 20:33N 42°39' W 070°26'10 9.7
2016-Apr-16 19:33N 42°33' W 070°36'9 9.4
2016-Apr-16 18:33N 42°27' W 070°47'9 9.4
2016-Apr-16 17:33N 42°21' W 070°56'4 4.4
2016-Apr-16 16:33N 42°23' W 071°01'0 0.2
2016-Apr-16 15:31N 42°24' W 071°01'0 0.0
2016-Apr-16 14:33N 42°24' W 071°01'0 0.0
2016-Apr-16 13:33N 42°24' W 071°01'0 0.0
2016-Apr-16 12:32N 42°24' W 071°01'0 0.0
2016-Apr-16 11:32N 42°24' W 071°01'0 0.0
2016-Apr-16 10:31N 42°24' W 071°01'0 0.0
2016-Apr-16 09:28N 42°24' W 071°01'0 0.0
2016-Apr-16 08:28N 42°24' W 071°01'0 0.0
2016-Apr-16 07:33N 42°24' W 071°01'0 0.0
2016-Apr-16 06:33N 42°24' W 071°01'0 0.0
2016-Apr-16 05:32N 42°24' W 071°01'0 0.0
2016-Apr-16 04:32N 42°24' W 071°01'0 0.0
2016-Apr-16 03:31N 42°24' W 071°01'0 0.0
2016-Apr-16 02:31N 42°24' W 071°01'0 0.0
2016-Apr-16 01:31N 42°24' W 071°01'0 0.0
2016-Apr-16 00:33N 42°24' W 071°01'0 0.0
2016-Apr-15 23:27N 42°24' W 071°01'0 0.0
2016-Apr-15 22:32N 42°24' W 071°01'0 0.0
2016-Apr-15 21:32N 42°24' W 071°01'1 0.6
2016-Apr-15 20:33N 42°23' W 071°02'3 3.4
2016-Apr-15 19:33N 42°20' W 070°60'1 1.2
2016-Apr-15 18:31N 42°20' W 070°58'0 0.2
2016-Apr-15 17:33N 42°20' W 070°58'5 5.2
2016-Apr-15 16:33N 42°24' W 070°52'4 3.9
2016-Apr-15 15:33N 42°25' W 070°47'0 0.1
2016-Apr-15 14:33N 42°25' W 070°47'0 0.0
2016-Apr-15 13:33N 42°25' W 070°47'0 0.0
2016-Apr-15 12:33N 42°25' W 070°47'0 0.0
2016-Apr-15 11:33N 42°25' W 070°47'0 0.0
2016-Apr-15 10:33N 42°25' W 070°47'0 0.0
2016-Apr-15 09:33N 42°25' W 070°47'0 0.0
2016-Apr-15 08:33N 42°25' W 070°47'0 0.0
2016-Apr-15 07:33N 42°25' W 070°47'0 0.0
2016-Apr-15 06:33N 42°25' W 070°47'3 3.5
2016-Apr-15 05:33N 42°27' W 070°43'10 9.7
2016-Apr-15 04:33N 42°33' W 070°33'1010.0
2016-Apr-15 03:33N 42°38' W 070°22'10 9.7
2016-Apr-15 02:33N 42°44' W 070°11'1010.1
2016-Apr-15 01:33N 42°49' W 069°59'  
2016-Apr-12 02:07N 42°42' W 070°12'813.8
2016-Apr-12 01:31N 42°38' W 070°21'1314.0
2016-Apr-12 00:34N 42°31' W 070°37'1414.2
2016-Apr-11 23:34N 42°23' W 070°53'7 6.6
2016-Apr-11 22:33N 42°23' W 071°02'0 0.2
2016-Apr-11 21:30N 42°23' W 071°01'0 0.0
2016-Apr-11 20:29N 42°23' W 071°01'0 0.0
2016-Apr-11 19:29N 42°23' W 071°01'0 0.0
2016-Apr-11 18:28N 42°23' W 071°01'0 0.0
2016-Apr-11 17:28N 42°23' W 071°01'0 0.0
2016-Apr-11 16:33N 42°23' W 071°01'0 0.0
2016-Apr-11 15:21N 42°23' W 071°01'0 0.0
2016-Apr-11 14:33N 42°23' W 071°01'0 0.0
2016-Apr-11 13:32N 42°23' W 071°01'0 0.0
2016-Apr-11 12:26N 42°23' W 071°01'0 0.0
2016-Apr-11 11:31N 42°23' W 071°01'0 0.0
2016-Apr-11 10:31N 42°23' W 071°01'0 0.0
2016-Apr-11 09:30N 42°23' W 071°01'0 0.0
2016-Apr-11 08:30N 42°23' W 071°01'0 0.0
2016-Apr-11 07:30N 42°23' W 071°01'0 0.0
2016-Apr-11 06:23N 42°23' W 071°01'0 0.0
2016-Apr-11 05:23N 42°23' W 071°01'0 0.0
2016-Apr-11 04:28N 42°23' W 071°01'0 0.0
2016-Apr-11 03:28N 42°23' W 071°01'0 0.0
2016-Apr-11 02:33N 42°23' W 071°01'0 0.0
2016-Apr-11 01:33N 42°23' W 071°01'0 0.0
2016-Apr-11 00:32N 42°23' W 071°01'0 0.0
2016-Apr-10 23:08N 42°23' W 071°01'0 0.0
2016-Apr-10 22:32N 42°23' W 071°01'0 0.0
2016-Apr-10 20:31N 42°23' W 071°01'1 0.3
2016-Apr-10 17:21N 42°24' W 071°01'0 0.0
2016-Apr-10 15:08N 42°24' W 071°01'0 0.0
2016-Apr-10 14:26N 42°24' W 071°01'0 0.0
2016-Apr-10 13:31N 42°24' W 071°01'0 0.0
2016-Apr-10 12:31N 42°24' W 071°01'0 0.0
2016-Apr-10 11:30N 42°24' W 071°01'0 0.0
2016-Apr-10 10:24N 42°24' W 071°01'0 0.0
2016-Apr-10 03:21N 42°24' W 071°01'0 0.0
2016-Apr-10 02:33N 42°24' W 071°01'0 0.0
2016-Apr-10 01:32N 42°24' W 071°01'0 0.0
2016-Apr-10 00:20N 42°24' W 071°01'0 0.0
2016-Apr-09 23:25N 42°24' W 071°01'0 0.0
2016-Apr-09 22:25N 42°24' W 071°01'0 0.0
2016-Apr-09 20:30N 42°24' W 071°01'0 0.0
2016-Apr-09 19:30N 42°24' W 071°01'0 0.0
2016-Apr-09 18:29N 42°24' W 071°01'0 0.0
2016-Apr-09 17:17N 42°24' W 071°01'0 0.0
2016-Apr-09 15:33N 42°24' W 071°01'3 2.6
2016-Apr-09 14:33N 42°22' W 071°02'1010.2
2016-Apr-09 13:33N 42°25' W 070°50'1312.6
2016-Apr-09 12:33N 42°32' W 070°35'1414.0
2016-Apr-09 11:33N 42°39' W 070°19'1413.8
2016-Apr-09 10:33N 42°47' W 070°04'  
Track history (hours):
 
Tides and Currents Weather Stations Pressure Air Temp Water Temp Dewpoint Dewpoint Depression Visibility Wind Speed Wind Dir Waves Ship Positions

New England

Last reported at 2016-Apr-16 22:08 UTC. Time now 2016-Apr-29 01:54 UTC.
Position N 42°51' W 070°14'.
Warning: this ship's position is 12 days out of date.

Length 182 m; draft 7.4 m.

Type: Ship. MMSI: 538002220.

Date/timePositionNaut miles runAvg speedWind from/ knotsBaromVisibWave heightAir tempDewpointWater temp
2016-Apr-16 22:08N 42°51' W 070°14'610.0
2016-Apr-16 21:33N 42°46' W 070°17'10 9.8
2016-Apr-16 20:33N 42°39' W 070°26'10 9.7
2016-Apr-16 19:33N 42°33' W 070°36'9 9.4
2016-Apr-16 18:33N 42°27' W 070°47'9 9.4
2016-Apr-16 17:33N 42°21' W 070°56'4 4.4
2016-Apr-16 16:33N 42°23' W 071°01'0 0.2
2016-Apr-16 15:31N 42°24' W 071°01'0 0.0
2016-Apr-16 14:33N 42°24' W 071°01'0 0.0
2016-Apr-16 13:33N 42°24' W 071°01'0 0.0
2016-Apr-16 12:32N 42°24' W 071°01'0 0.0
2016-Apr-16 11:32N 42°24' W 071°01'0 0.0
2016-Apr-16 10:31N 42°24' W 071°01'0 0.0
2016-Apr-16 09:28N 42°24' W 071°01'0 0.0
2016-Apr-16 08:28N 42°24' W 071°01'0 0.0
2016-Apr-16 07:33N 42°24' W 071°01'0 0.0
2016-Apr-16 06:33N 42°24' W 071°01'0 0.0
2016-Apr-16 05:32N 42°24' W 071°01'0 0.0
2016-Apr-16 04:32N 42°24' W 071°01'0 0.0
2016-Apr-16 03:31N 42°24' W 071°01'0 0.0
2016-Apr-16 02:31N 42°24' W 071°01'0 0.0
2016-Apr-16 01:31N 42°24' W 071°01'0 0.0
2016-Apr-16 00:33N 42°24' W 071°01'0 0.0
2016-Apr-15 23:27N 42°24' W 071°01'0 0.0
2016-Apr-15 22:32N 42°24' W 071°01'0 0.0
2016-Apr-15 21:32N 42°24' W 071°01'1 0.6
2016-Apr-15 20:33N 42°23' W 071°02'3 3.4
2016-Apr-15 19:33N 42°20' W 070°60'1 1.2
2016-Apr-15 18:31N 42°20' W 070°58'0 0.2
2016-Apr-15 17:33N 42°20' W 070°58'5 5.2
2016-Apr-15 16:33N 42°24' W 070°52'4 3.9
2016-Apr-15 15:33N 42°25' W 070°47'0 0.1
2016-Apr-15 14:33N 42°25' W 070°47'0 0.0
2016-Apr-15 13:33N 42°25' W 070°47'0 0.0
2016-Apr-15 12:33N 42°25' W 070°47'0 0.0
2016-Apr-15 11:33N 42°25' W 070°47'0 0.0
2016-Apr-15 10:33N 42°25' W 070°47'0 0.0
2016-Apr-15 09:33N 42°25' W 070°47'0 0.0
2016-Apr-15 08:33N 42°25' W 070°47'0 0.0
2016-Apr-15 07:33N 42°25' W 070°47'0 0.0
2016-Apr-15 06:33N 42°25' W 070°47'3 3.5
2016-Apr-15 05:33N 42°27' W 070°43'10 9.7
2016-Apr-15 04:33N 42°33' W 070°33'1010.0
2016-Apr-15 03:33N 42°38' W 070°22'10 9.7
2016-Apr-15 02:33N 42°44' W 070°11'1010.1
2016-Apr-15 01:33N 42°49' W 069°59'  
2016-Apr-12 02:07N 42°42' W 070°12'813.8
2016-Apr-12 01:31N 42°38' W 070°21'1314.0
2016-Apr-12 00:34N 42°31' W 070°37'1414.2
2016-Apr-11 23:34N 42°23' W 070°53'7 6.6
2016-Apr-11 22:33N 42°23' W 071°02'0 0.2
2016-Apr-11 21:30N 42°23' W 071°01'0 0.0
2016-Apr-11 20:29N 42°23' W 071°01'0 0.0
2016-Apr-11 19:29N 42°23' W 071°01'0 0.0
2016-Apr-11 18:28N 42°23' W 071°01'0 0.0
2016-Apr-11 17:28N 42°23' W 071°01'0 0.0
2016-Apr-11 16:33N 42°23' W 071°01'0 0.0
2016-Apr-11 15:21N 42°23' W 071°01'0 0.0
2016-Apr-11 14:33N 42°23' W 071°01'0 0.0
2016-Apr-11 13:32N 42°23' W 071°01'0 0.0
2016-Apr-11 12:26N 42°23' W 071°01'0 0.0
2016-Apr-11 11:31N 42°23' W 071°01'0 0.0
2016-Apr-11 10:31N 42°23' W 071°01'0 0.0
2016-Apr-11 09:30N 42°23' W 071°01'0 0.0
2016-Apr-11 08:30N 42°23' W 071°01'0 0.0
2016-Apr-11 07:30N 42°23' W 071°01'0 0.0
2016-Apr-11 06:23N 42°23' W 071°01'0 0.0
2016-Apr-11 05:23N 42°23' W 071°01'0 0.0
2016-Apr-11 04:28N 42°23' W 071°01'0 0.0
2016-Apr-11 03:28N 42°23' W 071°01'0 0.0
2016-Apr-11 02:33N 42°23' W 071°01'0 0.0
2016-Apr-11 01:33N 42°23' W 071°01'0 0.0
2016-Apr-11 00:32N 42°23' W 071°01'0 0.0
2016-Apr-10 23:08N 42°23' W 071°01'0 0.0
2016-Apr-10 22:32N 42°23' W 071°01'0 0.0
2016-Apr-10 20:31N 42°23' W 071°01'1 0.3
2016-Apr-10 17:21N 42°24' W 071°01'0 0.0
2016-Apr-10 15:08N 42°24' W 071°01'0 0.0
2016-Apr-10 14:26N 42°24' W 071°01'0 0.0
2016-Apr-10 13:31N 42°24' W 071°01'0 0.0
2016-Apr-10 12:31N 42°24' W 071°01'0 0.0
2016-Apr-10 11:30N 42°24' W 071°01'0 0.0
2016-Apr-10 10:24N 42°24' W 071°01'0 0.0
2016-Apr-10 03:21N 42°24' W 071°01'0 0.0
2016-Apr-10 02:33N 42°24' W 071°01'0 0.0
2016-Apr-10 01:32N 42°24' W 071°01'0 0.0
2016-Apr-10 00:20N 42°24' W 071°01'0 0.0
2016-Apr-09 23:25N 42°24' W 071°01'0 0.0
2016-Apr-09 22:25N 42°24' W 071°01'0 0.0
2016-Apr-09 20:30N 42°24' W 071°01'0 0.0
2016-Apr-09 19:30N 42°24' W 071°01'0 0.0
2016-Apr-09 18:29N 42°24' W 071°01'0 0.0
2016-Apr-09 17:17N 42°24' W 071°01'0 0.0
2016-Apr-09 15:33N 42°24' W 071°01'3 2.6
2016-Apr-09 14:33N 42°22' W 071°02'1010.2
2016-Apr-09 13:33N 42°25' W 070°50'1312.6
2016-Apr-09 12:33N 42°32' W 070°35'1414.0
2016-Apr-09 11:33N 42°39' W 070°19'1413.8
2016-Apr-09 10:33N 42°47' W 070°04'  

Dump ship's entire track history